createdAt,value
2023-01-03T00:00:05.892Z,101485.84
2023-01-03T00:00:18.925Z,101481.44
2023-01-03T00:00:52.635Z,101480.47
2023-01-03T00:01:19.326Z,101480.75
2023-01-03T00:01:32.580Z,101485.00
2023-01-03T00:01:45.718Z,101480.00
2023-01-03T00:01:58.607Z,101480.00
2023-01-03T00:02:12.344Z,101487.81
2023-01-03T00:02:25.037Z,101487.06
2023-01-03T00:02:38.261Z,101489.00
2023-01-03T00:02:51.026Z,101490.75
2023-01-03T00:03:04.106Z,101482.91
2023-01-03T00:03:17.275Z,101488.28
2023-01-03T00:03:29.867Z,101487.31
2023-01-03T00:03:42.593Z,101489.25
2023-01-03T00:03:58.485Z,101488.28
2023-01-03T00:04:11.809Z,101481.44
2023-01-03T00:04:24.546Z,101486.59
2023-01-03T00:04:37.400Z,101482.16
2023-01-03T00:04:50.320Z,101494.63
2023-01-03T00:05:04.382Z,101483.16
2023-01-03T00:05:17.201Z,101494.84
2023-01-03T00:05:29.941Z,101498.28
2023-01-03T00:05:42.982Z,101492.06
2023-01-03T00:05:55.582Z,101491.22
2023-01-03T00:06:15.709Z,101494.84
2023-01-03T00:06:30.459Z,101506.47
2023-01-03T00:06:46.302Z,101499.44
2023-01-03T00:06:58.890Z,101505.59
2023-01-03T00:07:11.538Z,101501.19
2023-01-03T00:07:34.237Z,101502.13
2023-01-03T00:07:47.072Z,101503.13
2023-01-03T00:07:59.667Z,101501.28
2023-01-03T00:08:12.733Z,101503.97
2023-01-03T00:08:27.437Z,101502.38
2023-01-03T00:08:40.029Z,101501.41
2023-01-03T00:08:53.860Z,101501.28
2023-01-03T00:09:09.513Z,101504.09
2023-01-03T00:09:24.714Z,101494.44
2023-01-03T00:09:38.421Z,101500.56
2023-01-03T00:09:51.012Z,101501.41
2023-01-03T00:10:05.880Z,101504.97
2023-01-03T00:10:18.746Z,101499.59
2023-01-03T00:10:31.374Z,101500.44
2023-01-03T00:10:44.249Z,101507.75
2023-01-03T00:10:56.872Z,101500.66
2023-01-03T00:11:12.018Z,101497.97
2023-01-03T00:11:41.525Z,101502.38
2023-01-03T00:12:13.967Z,101501.41
2023-01-03T00:12:31.077Z,101496.16
2023-01-03T00:12:44.027Z,101496.28
2023-01-03T00:12:56.808Z,101499.94
2023-01-03T00:13:09.425Z,101489.44
2023-01-03T00:13:22.002Z,101500.91
2023-01-03T00:13:34.644Z,101506.28
2023-01-03T00:13:47.266Z,101493.84
2023-01-03T00:13:59.844Z,101491.91
2023-01-03T00:14:14.970Z,101499.22
2023-01-03T00:14:30.379Z,101490.41
2023-01-03T00:14:44.179Z,101484.19
2023-01-03T00:14:58.033Z,101493.09
2023-01-03T00:15:11.218Z,101488.69
2023-01-03T00:15:23.831Z,101493.22
2023-01-03T00:15:37.115Z,101492.38
2023-01-03T00:15:49.742Z,101482.47
2023-01-03T00:16:02.336Z,101489.53
2023-01-03T00:16:16.673Z,101491.28
2023-01-03T00:16:30.342Z,101490.41
2023-01-03T00:16:43.249Z,101489.53
2023-01-03T00:16:57.656Z,101491.38
2023-01-03T00:17:12.209Z,101487.00
2023-01-03T00:17:25.384Z,101493.22
2023-01-03T00:17:38.986Z,101496.75
2023-01-03T00:17:51.823Z,101490.63
2023-01-03T00:18:05.003Z,101487.22
2023-01-03T00:18:17.671Z,101484.53
2023-01-03T00:18:30.372Z,101492.38
2023-01-03T00:18:43.010Z,101495.06
2023-01-03T00:18:56.991Z,101492.47
2023-01-03T00:19:11.231Z,101496.00
2023-01-03T00:19:26.324Z,101496.84
2023-01-03T00:19:42.611Z,101495.28
2023-01-03T00:19:55.341Z,101506.75
2023-01-03T00:20:10.084Z,101498.84
2023-01-03T00:20:23.118Z,101503.31
2023-01-03T00:20:36.719Z,101502.38
2023-01-03T00:20:49.328Z,101495.16
2023-01-03T00:21:04.306Z,101512.09
2023-01-03T00:21:16.875Z,101498.84
2023-01-03T00:21:29.488Z,101504.19
2023-01-03T00:21:42.800Z,101503.31
2023-01-03T00:21:55.967Z,101508.69
2023-01-03T00:22:10.224Z,101516.63
2023-01-03T00:22:22.863Z,101516.75
2023-01-03T00:22:35.711Z,101515.78
2023-01-03T00:22:48.591Z,101517.72
2023-01-03T00:23:02.273Z,101519.31
2023-01-03T00:23:14.970Z,101507.09
2023-01-03T00:23:27.558Z,101519.41
2023-01-03T00:23:41.180Z,101524.78
2023-01-03T00:23:54.037Z,101522.09
2023-01-03T00:24:07.491Z,101518.69
2023-01-03T00:24:20.992Z,101516.00
2023-01-03T00:24:33.652Z,101511.63
2023-01-03T00:24:48.123Z,101510.88
2023-01-03T00:25:01.865Z,101520.41
2023-01-03T00:25:15.461Z,101514.06
2023-01-03T00:25:28.750Z,101516.00
2023-01-03T00:25:41.586Z,101519.66
2023-01-03T00:25:54.175Z,101517.94
2023-01-03T00:26:11.258Z,101520.50
2023-01-03T00:26:23.826Z,101511.63
2023-01-03T00:26:40.388Z,101518.94
2023-01-03T00:26:53.032Z,101516.25
2023-01-03T00:27:05.867Z,101510.88
2023-01-03T00:27:18.754Z,101515.41
2023-01-03T00:27:31.387Z,101517.34
2023-01-03T00:27:45.027Z,101519.88
2023-01-03T00:27:57.668Z,101514.75
2023-01-03T00:28:10.664Z,101520.13
2023-01-03T00:28:23.242Z,101521.97
2023-01-03T00:28:35.879Z,101525.50
2023-01-03T00:28:48.479Z,101522.06
2023-01-03T00:29:01.318Z,101520.25
2023-01-03T00:29:14.492Z,101529.16
2023-01-03T00:29:28.321Z,101521.22
2023-01-03T00:29:42.492Z,101528.28
2023-01-03T00:29:55.150Z,101522.91
2023-01-03T00:30:08.860Z,101522.19
2023-01-03T00:30:21.808Z,101519.50
2023-01-03T00:30:36.877Z,101524.00
2023-01-03T00:30:49.568Z,101531.09
2023-01-03T00:31:07.681Z,101525.84
2023-01-03T00:31:20.501Z,101533.78
2023-01-03T00:31:33.743Z,101523.28
2023-01-03T00:31:46.337Z,101525.97
2023-01-03T00:31:59.920Z,101517.16
2023-01-03T00:32:13.284Z,101527.78
2023-01-03T00:32:25.905Z,101531.31
2023-01-03T00:32:38.784Z,101531.31
2023-01-03T00:32:51.462Z,101533.06
2023-01-03T00:33:04.355Z,101534.84
2023-01-03T00:33:16.929Z,101528.78
2023-01-03T00:33:30.536Z,101534.00
2023-01-03T00:33:43.139Z,101535.94
2023-01-03T00:33:57.202Z,101526.94
2023-01-03T00:34:10.268Z,101532.41
2023-01-03T00:34:22.937Z,101531.47
2023-01-03T00:34:36.403Z,101530.59
2023-01-03T00:34:49.033Z,101532.41
2023-01-03T00:35:05.344Z,101531.56
2023-01-03T00:35:18.517Z,101534.25
2023-01-03T00:35:31.111Z,101536.94
2023-01-03T00:35:43.718Z,101539.63
2023-01-03T00:35:56.316Z,101540.56
2023-01-03T00:36:10.370Z,101538.03
2023-01-03T00:36:22.983Z,101545.94
2023-01-03T00:36:37.706Z,101544.25
2023-01-03T00:36:50.467Z,101536.09
2023-01-03T00:37:03.689Z,101544.25
2023-01-03T00:37:16.661Z,101549.50
2023-01-03T00:37:29.262Z,101548.63
2023-01-03T00:37:42.857Z,101549.59
2023-01-03T00:37:55.461Z,101545.34
2023-01-03T00:38:08.211Z,101547.88
2023-01-03T00:38:20.799Z,101551.31
2023-01-03T00:38:33.770Z,101546.06
2023-01-03T00:38:46.399Z,101546.19
2023-01-03T00:38:59.036Z,101542.75
2023-01-03T00:39:12.973Z,101549.72
2023-01-03T00:39:25.954Z,101546.41
2023-01-03T00:39:38.825Z,101546.28
2023-01-03T00:39:51.426Z,101551.53
2023-01-03T00:40:05.009Z,101553.38
2023-01-03T00:40:18.830Z,101552.50
2023-01-03T00:40:31.457Z,101550.81
2023-01-03T00:40:44.059Z,101550.69
2023-01-03T00:41:04.748Z,101546.41
2023-01-03T00:41:19.011Z,101552.75
2023-01-03T00:41:31.925Z,101562.28
2023-01-03T00:41:46.096Z,101560.53
2023-01-03T00:41:58.715Z,101548.22
2023-01-03T00:42:11.669Z,101548.22
2023-01-03T00:42:24.269Z,101547.38
2023-01-03T00:42:57.466Z,101557.25
2023-01-03T00:43:28.391Z,101559.09
2023-01-03T00:43:42.766Z,101550.16
2023-01-03T00:43:56.375Z,101560.91
2023-01-03T00:44:09.429Z,101562.84
2023-01-03T00:44:22.237Z,101561.03
2023-01-03T00:44:34.855Z,101562.97
2023-01-03T00:44:47.469Z,101563.72
2023-01-03T00:45:01.061Z,101569.41
2023-01-03T00:45:17.719Z,101565.75
2023-01-03T00:45:35.458Z,101555.13
2023-01-03T00:45:48.189Z,101567.59
2023-01-03T00:46:01.661Z,101561.38
2023-01-03T00:46:15.958Z,101565.84
2023-01-03T00:46:28.793Z,101567.69
2023-01-03T00:46:42.683Z,101569.41
2023-01-03T00:46:55.327Z,101564.25
2023-01-03T00:47:07.963Z,101560.63
2023-01-03T00:47:20.615Z,101567.78
2023-01-03T00:47:33.199Z,101567.78
2023-01-03T00:47:45.785Z,101575.84
2023-01-03T00:47:58.319Z,101573.16
2023-01-03T00:48:10.885Z,101567.78
2023-01-03T00:48:24.773Z,101582.94
2023-01-03T00:48:37.660Z,101573.31
2023-01-03T00:48:50.653Z,101570.63
2023-01-03T00:49:05.927Z,101564.63
2023-01-03T00:49:19.604Z,101575.09
2023-01-03T00:49:32.234Z,101583.03
2023-01-03T00:49:44.803Z,101569.88
2023-01-03T00:49:57.379Z,101577.91
2023-01-03T00:50:09.938Z,101567.06
2023-01-03T00:50:22.571Z,101574.34
2023-01-03T00:50:37.410Z,101573.41
2023-01-03T00:50:51.024Z,101574.16
2023-01-03T00:51:06.342Z,101572.66
2023-01-03T00:51:21.694Z,101576.19
2023-01-03T00:51:35.909Z,101572.66
2023-01-03T00:51:48.465Z,101580.47
2023-01-03T00:52:02.011Z,101572.66
2023-01-03T00:52:14.650Z,101581.44
2023-01-03T00:52:27.195Z,101568.28
2023-01-03T00:52:39.792Z,101573.50
2023-01-03T00:52:52.326Z,101572.66
2023-01-03T00:53:04.871Z,101571.81
2023-01-03T00:53:17.610Z,101572.66
2023-01-03T00:53:30.254Z,101573.50
2023-01-03T00:53:45.638Z,101580.59
2023-01-03T00:53:59.515Z,101576.94
2023-01-03T00:54:13.528Z,101578.03
2023-01-03T00:54:26.228Z,101573.50
2023-01-03T00:54:38.791Z,101574.50
2023-01-03T00:54:52.616Z,101578.03
2023-01-03T00:55:06.179Z,101578.88
2023-01-03T00:55:18.761Z,101577.28
2023-01-03T00:55:34.812Z,101572.75
2023-01-03T00:55:47.579Z,101579.00
2023-01-03T00:56:03.125Z,101579.00
2023-01-03T00:56:17.560Z,101574.59
2023-01-03T00:56:33.317Z,101577.38
2023-01-03T00:56:47.687Z,101578.38
2023-01-03T00:57:00.292Z,101566.78
2023-01-03T00:57:12.863Z,101570.41
2023-01-03T00:57:25.457Z,101574.69
2023-01-03T00:57:38.087Z,101564.09
2023-01-03T00:57:51.837Z,101571.41
2023-01-03T00:58:04.583Z,101574.84
2023-01-03T00:58:17.180Z,101574.09
2023-01-03T00:58:30.520Z,101571.41
2023-01-03T00:58:43.746Z,101577.63
2023-01-03T00:58:58.337Z,101567.75
2023-01-03T00:59:12.077Z,101581.91
2023-01-03T00:59:24.950Z,101578.47
2023-01-03T00:59:37.724Z,101574.09
2023-01-03T00:59:50.357Z,101569.47
2023-01-03T01:00:04.257Z,101578.47
2023-01-03T01:00:18.164Z,101575.03
2023-01-03T01:00:30.775Z,101582.00
2023-01-03T01:00:43.391Z,101575.03
2023-01-03T01:00:55.990Z,101575.88
2023-01-03T01:01:11.221Z,101574.19
2023-01-03T01:01:25.614Z,101582.22
2023-01-03T01:01:46.610Z,101575.03
2023-01-03T01:02:01.078Z,101575.03
2023-01-03T01:02:13.899Z,101576.03
2023-01-03T01:02:26.767Z,101580.41
2023-01-03T01:02:39.874Z,101582.34
2023-01-03T01:02:53.719Z,101574.28
2023-01-03T01:03:06.865Z,101575.28
2023-01-03T01:03:19.703Z,101577.72
2023-01-03T01:03:33.805Z,101574.28
2023-01-03T01:03:49.525Z,101588.59
2023-01-03T01:04:07.078Z,101577.97
2023-01-03T01:04:21.961Z,101584.28
2023-01-03T01:04:34.658Z,101586.00
2023-01-03T01:04:47.218Z,101579.78
2023-01-03T01:04:59.770Z,101587.94
2023-01-03T01:05:13.334Z,101585.25
2023-01-03T01:05:26.074Z,101598.66
2023-01-03T01:05:38.719Z,101587.09
2023-01-03T01:05:51.342Z,101590.63
2023-01-03T01:06:11.840Z,101595.22
2023-01-03T01:06:26.071Z,101601.34
2023-01-03T01:06:41.502Z,101597.81
2023-01-03T01:06:55.818Z,101597.91
2023-01-03T01:07:08.535Z,101592.44
2023-01-03T01:07:21.127Z,101599.75
2023-01-03T01:07:33.692Z,101600.59
2023-01-03T01:07:46.288Z,101593.50
2023-01-03T01:07:59.176Z,101596.19
2023-01-03T01:08:12.751Z,101590.97
2023-01-03T01:08:25.576Z,101601.44
2023-01-03T01:08:38.200Z,101598.75
2023-01-03T01:08:51.917Z,101604.22
2023-01-03T01:09:06.272Z,101606.91
2023-01-03T01:09:22.022Z,101598.16
2023-01-03T01:09:36.630Z,101595.47
2023-01-03T01:09:51.311Z,101607.66
2023-01-03T01:10:04.586Z,101606.81
2023-01-03T01:10:19.627Z,101599.84
2023-01-03T01:10:32.229Z,101598.00
2023-01-03T01:11:01.803Z,101598.16
2023-01-03T01:11:16.727Z,101591.91
2023-01-03T01:11:31.567Z,101596.31
2023-01-03T01:11:44.955Z,101592.78
2023-01-03T01:11:57.711Z,101595.34
2023-01-03T01:12:10.323Z,101597.16
2023-01-03T01:12:23.897Z,101592.78
2023-01-03T01:12:36.848Z,101599.00
2023-01-03T01:12:49.407Z,101594.50
2023-01-03T01:13:02.082Z,101595.47
2023-01-03T01:13:15.125Z,101593.75
2023-01-03T01:13:28.423Z,101597.41
2023-01-03T01:13:42.441Z,101594.81
2023-01-03T01:13:56.875Z,101599.09
2023-01-03T01:14:20.042Z,101589.47
2023-01-03T01:14:33.459Z,101587.72
2023-01-03T01:14:46.244Z,101593.97
2023-01-03T01:14:58.885Z,101595.69
2023-01-03T01:15:13.241Z,101592.16
2023-01-03T01:15:25.844Z,101597.41
2023-01-03T01:15:39.203Z,101593.00
2023-01-03T01:15:51.933Z,101593.97
2023-01-03T01:16:07.464Z,101606.41
2023-01-03T01:16:22.852Z,101595.69
2023-01-03T01:16:35.496Z,101593.00
2023-01-03T01:16:49.704Z,101594.94
2023-01-03T01:17:06.993Z,101600.28
2023-01-03T01:17:22.876Z,101597.59
2023-01-03T01:17:35.771Z,101596.84
2023-01-03T01:17:48.361Z,101599.44
2023-01-03T01:18:00.991Z,101603.06
2023-01-03T01:18:13.587Z,101597.59
2023-01-03T01:18:26.167Z,101600.38
2023-01-03T01:18:39.626Z,101600.53
2023-01-03T01:18:54.630Z,101596.13
2023-01-03T01:19:08.593Z,101595.25
2023-01-03T01:19:22.830Z,101594.19
2023-01-03T01:19:37.689Z,101599.69
2023-01-03T01:19:50.275Z,101602.22
2023-01-03T01:20:02.949Z,101599.69
2023-01-03T01:20:17.642Z,101597.09
2023-01-03T01:20:30.237Z,101599.78
2023-01-03T01:20:42.792Z,101601.59
2023-01-03T01:20:55.388Z,101599.88
2023-01-03T01:21:09.362Z,101607.81
2023-01-03T01:21:24.111Z,101605.25
2023-01-03T01:21:36.708Z,101608.03
2023-01-03T01:21:50.638Z,101609.75
2023-01-03T01:22:03.941Z,101600.13
2023-01-03T01:22:16.546Z,101607.16
2023-01-03T01:22:29.182Z,101600.22
2023-01-03T01:22:41.773Z,101608.25
2023-01-03T01:22:54.384Z,101611.78
2023-01-03T01:23:06.959Z,101606.41
2023-01-03T01:23:20.538Z,101608.34
2023-01-03T01:23:35.619Z,101604.72
2023-01-03T01:23:48.286Z,101597.88
2023-01-03T01:24:00.886Z,101603.88
2023-01-03T01:24:17.687Z,101603.97
2023-01-03T01:24:32.368Z,101604.94
2023-01-03T01:24:45.015Z,101616.28
2023-01-03T01:24:57.590Z,101604.94
2023-01-03T01:25:10.202Z,101612.03
2023-01-03T01:25:22.798Z,101612.75
2023-01-03T01:25:35.422Z,101607.50
2023-01-03T01:25:48.028Z,101617.28
2023-01-03T01:26:02.497Z,101617.38
2023-01-03T01:26:16.983Z,101619.06
2023-01-03T01:26:29.881Z,101610.19
2023-01-03T01:26:42.584Z,101612.88
2023-01-03T01:26:56.543Z,101617.28
2023-01-03T01:27:09.403Z,101618.22
2023-01-03T01:27:22.038Z,101623.59
2023-01-03T01:27:34.655Z,101618.22
2023-01-03T01:27:47.245Z,101622.75
2023-01-03T01:27:59.826Z,101626.25
2023-01-03T01:28:12.452Z,101621.88
2023-01-03T01:28:25.013Z,101624.44
2023-01-03T01:28:39.290Z,101623.59
2023-01-03T01:28:53.416Z,101626.38
2023-01-03T01:29:06.265Z,101622.00
2023-01-03T01:29:19.888Z,101627.25
2023-01-03T01:29:32.537Z,101630.97
2023-01-03T01:29:46.246Z,101630.88
2023-01-03T01:29:58.822Z,101622.09
2023-01-03T01:30:11.441Z,101630.13
2023-01-03T01:30:24.043Z,101618.56
2023-01-03T01:30:37.599Z,101625.75
2023-01-03T01:30:50.237Z,101626.69
2023-01-03T01:31:05.135Z,101625.75
2023-01-03T01:31:20.318Z,101625.84
2023-01-03T01:31:34.734Z,101626.69
2023-01-03T01:31:47.997Z,101632.81
2023-01-03T01:32:01.853Z,101625.00
2023-01-03T01:32:14.521Z,101636.56
2023-01-03T01:32:27.131Z,101617.16
2023-01-03T01:32:39.738Z,101628.53
2023-01-03T01:32:52.383Z,101630.34
2023-01-03T01:33:06.135Z,101626.69
2023-01-03T01:33:18.725Z,101631.31
2023-01-03T01:33:32.863Z,101622.53
2023-01-03T01:33:45.966Z,101617.38
2023-01-03T01:33:58.777Z,101626.19
2023-01-03T01:34:13.763Z,101633.25
2023-01-03T01:34:27.371Z,101625.19
2023-01-03T01:34:40.225Z,101621.78
2023-01-03T01:34:53.113Z,101622.75
2023-01-03T01:35:06.150Z,101629.81
2023-01-03T01:35:18.763Z,101624.44
2023-01-03T01:35:32.426Z,101629.81
2023-01-03T01:35:45.006Z,101628.09
2023-01-03T01:35:57.624Z,101624.69
2023-01-03T01:36:15.207Z,101626.38
2023-01-03T01:36:30.208Z,101625.66
2023-01-03T01:36:43.689Z,101623.81
2023-01-03T01:36:56.659Z,101635.41
2023-01-03T01:37:09.279Z,101631.97
2023-01-03T01:37:21.895Z,101633.69
2023-01-03T01:37:34.588Z,101626.84
2023-01-03T01:37:47.165Z,101631.13
2023-01-03T01:38:00.756Z,101634.66
2023-01-03T01:38:13.371Z,101627.69
2023-01-03T01:38:25.982Z,101628.53
2023-01-03T01:38:38.606Z,101631.22
2023-01-03T01:38:54.681Z,101628.63
2023-01-03T01:39:10.110Z,101628.75
2023-01-03T01:39:25.665Z,101634.13
2023-01-03T01:39:38.678Z,101639.47
2023-01-03T01:39:51.377Z,101634.13
2023-01-03T01:40:04.491Z,101633.38
2023-01-03T01:40:19.045Z,101644.84
2023-01-03T01:40:32.173Z,101638.59
2023-01-03T01:40:45.113Z,101642.16
2023-01-03T01:40:57.683Z,101638.72
2023-01-03T01:41:14.548Z,101631.78
2023-01-03T01:41:47.907Z,101642.34
2023-01-03T01:42:23.145Z,101639.91
2023-01-03T01:42:56.104Z,101650.41
2023-01-03T01:43:37.353Z,101638.19
2023-01-03T01:44:15.379Z,101633.81
2023-01-03T01:44:58.349Z,101634.88
2023-01-03T01:45:14.485Z,101635.72
2023-01-03T01:45:28.211Z,101641.84
2023-01-03T01:45:40.819Z,101635.81
2023-01-03T01:45:53.505Z,101643.75
2023-01-03T01:46:16.195Z,101634.03
2023-01-03T01:46:32.969Z,101640.22
2023-01-03T01:46:45.648Z,101641.09
2023-01-03T01:46:59.319Z,101641.94
2023-01-03T01:47:15.319Z,101637.56
2023-01-03T01:47:34.676Z,101638.63
2023-01-03T01:47:51.687Z,101633.28
2023-01-03T01:48:10.472Z,101635.94
2023-01-03T01:48:24.358Z,101638.63
2023-01-03T01:48:37.253Z,101641.31
2023-01-03T01:48:54.373Z,101644.00
2023-01-03T01:49:16.506Z,101635.19
2023-01-03T01:49:29.449Z,101634.31
2023-01-03T01:49:42.949Z,101642.25
2023-01-03T01:50:01.103Z,101643.25
2023-01-03T01:50:20.571Z,101640.56
2023-01-03T01:50:40.532Z,101638.06
2023-01-03T01:50:57.077Z,101653.19
2023-01-03T01:51:11.138Z,101639.81
2023-01-03T01:51:26.556Z,101640.97
2023-01-03T01:51:40.233Z,101640.75
2023-01-03T01:51:52.915Z,101647.94
2023-01-03T01:52:06.404Z,101640.13
2023-01-03T01:52:21.062Z,101649.00
2023-01-03T01:52:37.295Z,101643.66
2023-01-03T01:52:59.106Z,101650.72
2023-01-03T01:53:15.059Z,101655.31
2023-01-03T01:53:32.056Z,101653.38
2023-01-03T01:53:45.003Z,101650.94
2023-01-03T01:54:00.851Z,101655.31
2023-01-03T01:54:13.748Z,101653.63
2023-01-03T01:54:26.490Z,101650.09
2023-01-03T01:54:41.512Z,101653.63
2023-01-03T01:54:55.215Z,101652.75
2023-01-03T01:55:13.105Z,101652.75
2023-01-03T01:55:39.137Z,101650.41
2023-01-03T01:55:55.371Z,101652.09
2023-01-03T01:56:11.123Z,101656.38
2023-01-03T01:56:28.169Z,101662.59
2023-01-03T01:56:45.628Z,101659.16
2023-01-03T01:56:58.389Z,101658.31
2023-01-03T01:57:15.579Z,101658.31
2023-01-03T01:57:31.313Z,101661.84
2023-01-03T01:57:44.868Z,101663.66
2023-01-03T01:57:57.760Z,101659.28
2023-01-03T01:58:12.615Z,101658.44
2023-01-03T01:58:30.237Z,101669.25
2023-01-03T01:58:45.343Z,101661.31
2023-01-03T01:58:58.099Z,101662.16
2023-01-03T01:59:12.316Z,101661.31
2023-01-03T01:59:25.323Z,101664.00
2023-01-03T01:59:38.004Z,101665.81
2023-01-03T01:59:50.698Z,101667.66
2023-01-03T02:00:05.373Z,101669.44
2023-01-03T02:00:18.220Z,101669.44
2023-01-03T02:00:31.085Z,101663.47
2023-01-03T02:00:44.948Z,101664.22
2023-01-03T02:00:58.840Z,101665.16
2023-01-03T02:01:14.460Z,101665.16
2023-01-03T02:01:27.714Z,101663.47
2023-01-03T02:01:42.961Z,101668.81
2023-01-03T02:01:56.271Z,101668.81
2023-01-03T02:02:10.232Z,101665.38
2023-01-03T02:02:24.349Z,101660.97
2023-01-03T02:02:38.275Z,101663.47
2023-01-03T02:02:53.218Z,101659.94
2023-01-03T02:03:06.154Z,101661.72
2023-01-03T02:03:19.260Z,101668.06
2023-01-03T02:03:31.981Z,101667.97
2023-01-03T02:03:51.079Z,101667.97
2023-01-03T02:04:10.813Z,101674.34
2023-01-03T02:04:27.639Z,101665.38
2023-01-03T02:04:41.014Z,101663.56
2023-01-03T02:04:56.086Z,101660.03
2023-01-03T02:05:10.086Z,101661.84
2023-01-03T02:05:23.493Z,101661.72
2023-01-03T02:05:40.516Z,101666.22
2023-01-03T02:05:56.203Z,101670.75
2023-01-03T02:06:10.613Z,101660.97
2023-01-03T02:06:24.497Z,101660.03
2023-01-03T02:06:39.148Z,101658.41
2023-01-03T02:06:52.672Z,101653.06
2023-01-03T02:07:06.528Z,101660.22
2023-01-03T02:07:21.987Z,101668.16
2023-01-03T02:07:35.341Z,101666.47
2023-01-03T02:07:49.736Z,101661.19
2023-01-03T02:08:02.961Z,101657.66
2023-01-03T02:08:15.984Z,101664.63
2023-01-03T02:08:28.585Z,101661.94
2023-01-03T02:08:42.512Z,101666.47
2023-01-03T02:08:55.109Z,101661.09
2023-01-03T02:09:08.038Z,101655.75
2023-01-03T02:09:20.669Z,101667.31
2023-01-03T02:09:35.415Z,101660.22
2023-01-03T02:09:50.264Z,101657.53
2023-01-03T02:10:03.939Z,101652.19
2023-01-03T02:10:17.358Z,101655.84
2023-01-03T02:10:41.435Z,101658.50
2023-01-03T02:11:11.955Z,101664.81
2023-01-03T02:11:33.376Z,101656.78
2023-01-03T02:12:14.415Z,101660.44
2023-01-03T02:13:13.331Z,101664.94
2023-01-03T02:13:37.806Z,101665.78
2023-01-03T02:14:00.007Z,101670.16
2023-01-03T02:14:34.528Z,101672.84
2023-01-03T02:15:03.096Z,101664.09
2023-01-03T02:15:30.569Z,101665.88
2023-01-03T02:16:03.676Z,101667.72
2023-01-03T02:16:27.215Z,101662.34
2023-01-03T02:16:58.370Z,101664.28
2023-01-03T02:17:20.902Z,101667.94
2023-01-03T02:17:53.695Z,101669.63
2023-01-03T02:18:19.381Z,101674.13
2023-01-03T02:18:46.839Z,101667.06
2023-01-03T02:19:13.399Z,101669.84
2023-01-03T02:19:56.621Z,101675.97
2023-01-03T02:20:24.859Z,101665.44
2023-01-03T02:20:57.486Z,101668.13
2023-01-03T02:21:47.863Z,101671.56
2023-01-03T02:22:49.187Z,101666.44
2023-01-03T02:23:35.192Z,101669.84
2023-01-03T02:24:21.690Z,101673.47
2023-01-03T02:24:56.935Z,101670.81
2023-01-03T02:25:47.591Z,101667.38
2023-01-03T02:26:45.186Z,101679.06
2023-01-03T02:27:10.212Z,101679.25
2023-01-03T02:27:47.216Z,101677.53
2023-01-03T02:28:32.942Z,101681.91
2023-01-03T02:29:20.487Z,101677.75
2023-01-03T02:29:56.850Z,101686.72
2023-01-03T02:30:31.539Z,101679.88
2023-01-03T02:30:50.330Z,101670.97
2023-01-03T02:31:09.633Z,101679.88
2023-01-03T02:31:29.642Z,101674.50
2023-01-03T02:31:49.463Z,101679.97
2023-01-03T02:32:06.673Z,101677.28
2023-01-03T02:32:25.735Z,101675.47
2023-01-03T02:32:45.193Z,101679.06
2023-01-03T02:33:08.816Z,101677.47
2023-01-03T02:33:27.937Z,101678.31
2023-01-03T02:33:52.918Z,101682.06
2023-01-03T02:34:15.118Z,101675.84
2023-01-03T02:34:35.892Z,101676.72
2023-01-03T02:34:57.042Z,101682.91
2023-01-03T02:35:17.852Z,101681.22
2023-01-03T02:35:36.356Z,101676.72
2023-01-03T02:35:59.583Z,101676.81
2023-01-03T02:36:17.738Z,101682.81
2023-01-03T02:36:40.263Z,101680.22
2023-01-03T02:37:03.522Z,101680.34
2023-01-03T02:37:21.732Z,101682.16
2023-01-03T02:37:44.294Z,101679.59
2023-01-03T02:38:02.348Z,101675.31
2023-01-03T02:38:25.878Z,101682.38
2023-01-03T02:38:49.070Z,101684.06
2023-01-03T02:39:06.624Z,101682.38
2023-01-03T02:39:27.202Z,101682.38
2023-01-03T02:39:47.887Z,101681.50
2023-01-03T02:40:06.927Z,101681.59
2023-01-03T02:40:26.500Z,101686.03
2023-01-03T02:40:45.521Z,101681.59
2023-01-03T02:41:07.352Z,101686.97
2023-01-03T02:41:27.283Z,101675.59
2023-01-03T02:41:45.282Z,101680.94
2023-01-03T02:42:19.141Z,101685.34
2023-01-03T02:42:59.286Z,101692.41
2023-01-03T02:43:18.451Z,101687.19
2023-01-03T02:43:36.881Z,101682.75
2023-01-03T02:43:54.025Z,101681.06
2023-01-03T02:44:12.331Z,101685.44
2023-01-03T02:44:31.220Z,101691.78
2023-01-03T02:44:52.688Z,101690.03
2023-01-03T02:45:11.169Z,101690.03
2023-01-03T02:45:46.986Z,101684.91
2023-01-03T02:46:07.699Z,101696.34
2023-01-03T02:46:25.576Z,101695.50
2023-01-03T02:46:43.913Z,101700.84
2023-01-03T02:47:03.273Z,101702.66
2023-01-03T02:47:19.526Z,101704.38
2023-01-03T02:47:40.729Z,101703.63
2023-01-03T02:47:58.129Z,101704.38
2023-01-03T02:48:15.270Z,101699.22
2023-01-03T02:48:42.085Z,101711.66
2023-01-03T02:49:00.233Z,101698.28
2023-01-03T02:49:22.908Z,101706.31
2023-01-03T02:49:39.636Z,101701.13
2023-01-03T02:49:52.966Z,101705.44
2023-01-03T02:50:08.358Z,101702.09
2023-01-03T02:50:25.380Z,101709.91
2023-01-03T02:50:44.572Z,101708.22
2023-01-03T02:51:01.717Z,101716.25
2023-01-03T02:51:20.253Z,101709.06
2023-01-03T02:51:36.868Z,101710.97
2023-01-03T02:51:54.646Z,101720.75
2023-01-03T02:52:11.653Z,101711.84
2023-01-03T02:52:27.600Z,101714.50
2023-01-03T02:52:42.096Z,101712.72
2023-01-03T02:53:00.876Z,101714.50
2023-01-03T02:53:17.271Z,101716.25
2023-01-03T02:53:33.948Z,101716.53
2023-01-03T02:53:49.257Z,101716.41
2023-01-03T02:54:03.592Z,101720.75
2023-01-03T02:54:21.189Z,101721.69
2023-01-03T02:54:40.014Z,101718.25
2023-01-03T02:54:58.444Z,101717.31
2023-01-03T02:55:16.533Z,101724.44
2023-01-03T02:55:32.844Z,101724.44
2023-01-03T02:55:49.602Z,101726.28
2023-01-03T02:56:08.780Z,101721.91
2023-01-03T02:56:25.392Z,101719.09
2023-01-03T02:56:42.862Z,101719.22
2023-01-03T02:57:01.612Z,101721.03
2023-01-03T02:57:17.799Z,101730.00
2023-01-03T02:57:38.072Z,101713.19
2023-01-03T02:57:56.291Z,101714.16
2023-01-03T02:58:13.172Z,101718.56
2023-01-03T02:58:31.125Z,101720.56
2023-01-03T02:58:47.193Z,101729.34
2023-01-03T02:59:03.347Z,101721.22
2023-01-03T02:59:22.282Z,101730.22
2023-01-03T02:59:41.070Z,101715.97
2023-01-03T02:59:56.919Z,101721.44
2023-01-03T03:00:13.256Z,101725.81
2023-01-03T03:00:30.677Z,101721.44
2023-01-03T03:00:48.711Z,101725.06
2023-01-03T03:01:03.360Z,101727.63
2023-01-03T03:01:19.846Z,101727.63
2023-01-03T03:01:35.553Z,101718.00
2023-01-03T03:01:51.540Z,101717.16
2023-01-03T03:02:07.036Z,101718.09
2023-01-03T03:02:23.617Z,101721.63
2023-01-03T03:02:40.319Z,101721.63
2023-01-03T03:02:59.147Z,101718.84
2023-01-03T03:03:15.425Z,101723.34
2023-01-03T03:03:33.025Z,101721.63